createdAt,value
2018-08-22T00:02:36.965Z,99.90
2018-08-22T00:05:05.990Z,99.90
2018-08-22T00:07:35.005Z,99.90
2018-08-22T00:10:04.004Z,99.90
2018-08-22T01:02:40.868Z,99.90
2018-08-22T01:05:09.877Z,99.90
2018-08-22T01:07:38.901Z,99.90
2018-08-22T01:10:09.185Z,99.90
2018-08-22T02:03:02.588Z,99.90
2018-08-22T02:05:31.718Z,99.90
2018-08-22T02:08:00.748Z,99.90
2018-08-22T02:10:29.989Z,99.90
2018-08-22T03:02:37.384Z,99.90
2018-08-22T03:05:06.466Z,99.90
2018-08-22T03:07:35.424Z,99.90
2018-08-22T03:10:05.488Z,99.90
2018-08-22T04:02:39.972Z,99.90
2018-08-22T04:05:08.953Z,99.90
2018-08-22T04:07:38.031Z,99.90
2018-08-22T04:10:07.446Z,99.90
2018-08-22T05:02:37.468Z,99.90
2018-08-22T05:05:06.601Z,99.90
2018-08-22T05:07:35.593Z,99.90
2018-08-22T05:10:04.610Z,99.90
2018-08-22T06:02:40.128Z,99.90
2018-08-22T06:05:09.149Z,99.90
2018-08-22T06:07:38.120Z,99.90
2018-08-22T06:10:07.571Z,99.90
2018-08-22T07:02:59.437Z,99.90
2018-08-22T07:05:28.502Z,99.90
2018-08-22T07:07:57.561Z,99.90
2018-08-22T07:10:26.761Z,99.90
2018-08-22T08:02:46.606Z,99.90
2018-08-22T08:05:15.669Z,99.90
2018-08-22T08:07:44.641Z,99.90
2018-08-22T09:02:52.340Z,99.90
2018-08-22T09:05:21.574Z,99.90
2018-08-22T09:07:50.631Z,99.90
2018-08-22T09:10:19.669Z,99.90
2018-08-22T10:02:47.820Z,99.90
2018-08-22T10:05:16.810Z,99.90
2018-08-22T10:07:45.964Z,99.90
2018-08-22T10:10:15.080Z,99.90
2018-08-22T11:02:49.866Z,99.90
2018-08-22T11:05:18.937Z,99.90
2018-08-22T11:07:48.946Z,99.90
2018-08-22T11:10:18.459Z,99.90
2018-08-22T12:03:37.230Z,99.50
2018-08-22T12:06:06.216Z,99.90
2018-08-22T12:08:35.261Z,99.90
2018-08-22T13:02:50.357Z,96.90
2018-08-22T13:05:19.367Z,98.70
2018-08-22T13:07:48.477Z,98.00
2018-08-22T13:10:17.869Z,97.40
2018-08-22T14:02:36.985Z,71.00
2018-08-22T14:05:06.433Z,70.50
2018-08-22T14:07:35.488Z,71.80
2018-08-22T14:10:04.836Z,70.00
2018-08-22T15:02:48.598Z,93.90
2018-08-22T15:05:17.502Z,93.80
2018-08-22T15:07:46.498Z,90.40
2018-08-22T15:10:17.448Z,89.40
2018-08-22T16:02:37.915Z,99.90
2018-08-22T16:05:07.037Z,99.90
2018-08-22T16:07:36.031Z,99.90
2018-08-22T16:10:05.582Z,99.90
2018-08-22T17:02:39.038Z,99.90
2018-08-22T17:05:08.531Z,99.90
2018-08-22T17:07:37.536Z,99.90
2018-08-22T18:02:37.178Z,99.90
2018-08-22T18:05:06.227Z,99.90
2018-08-22T18:07:35.316Z,99.90
2018-08-22T18:10:04.355Z,99.90
2018-08-22T19:02:43.417Z,99.90
2018-08-22T19:05:27.486Z,99.90
2018-08-22T19:08:08.765Z,99.90
2018-08-22T20:02:40.001Z,99.90
2018-08-22T20:05:10.391Z,99.90
2018-08-22T20:07:39.968Z,99.90
2018-08-22T20:10:09.733Z,99.90
2018-08-22T21:02:37.576Z,99.90
2018-08-22T21:05:06.601Z,99.90
2018-08-22T21:07:39.497Z,99.90
2018-08-22T22:02:44.677Z,99.90
2018-08-22T22:05:13.726Z,99.90
2018-08-22T22:07:42.733Z,99.90
2018-08-22T23:03:09.511Z,99.90
2018-08-22T23:05:38.535Z,99.90
2018-08-22T23:08:07.509Z,99.90
2018-08-22T23:10:36.652Z,99.90
